createdAt,value
2018-02-16T00:01:35.332Z,97390.19
2018-02-16T00:03:12.513Z,97398.38
2018-02-16T00:04:50.227Z,97408.86
2018-02-16T00:06:27.000Z,97364.09
2018-02-16T00:08:03.390Z,97341.98
2018-02-16T00:09:40.259Z,97363.69
2018-02-16T00:11:16.695Z,97365.73
2018-02-16T00:12:54.050Z,97349.27
2018-02-16T00:14:30.545Z,97294.62
2018-02-16T00:16:13.754Z,97282.02
2018-02-16T00:17:57.257Z,97263.81
2018-02-16T00:19:35.514Z,97193.98
2018-02-16T00:21:14.154Z,97128.45
2018-02-16T00:22:55.176Z,97058.64
2018-02-16T00:24:31.572Z,97089.83
2018-02-16T00:26:07.954Z,97207.83
2018-02-16T00:27:44.626Z,97270.70
2018-02-16T00:29:21.568Z,97271.17
2018-02-16T00:30:58.032Z,97204.31
2018-02-16T00:32:34.417Z,97151.41
2018-02-16T00:34:10.846Z,97172.63
2018-02-16T00:35:49.499Z,97196.53
2018-02-16T00:37:25.883Z,97230.84
2018-02-16T00:39:02.407Z,97256.46
2018-02-16T00:40:39.001Z,97243.41
2018-02-16T00:42:16.354Z,97230.81
2018-02-16T00:43:52.905Z,97203.52
2018-02-16T00:45:29.524Z,97143.33
2018-02-16T00:47:05.925Z,97101.95
2018-02-16T00:48:43.849Z,97046.03
2018-02-16T00:50:20.434Z,96924.30
2018-02-16T00:51:57.723Z,96853.99
2018-02-16T00:53:34.724Z,96914.33
2018-02-16T00:55:12.162Z,96974.52
2018-02-16T00:56:48.654Z,96916.08
2018-02-16T00:58:26.841Z,96894.46
2018-02-16T01:00:04.483Z,97036.19
2018-02-16T01:01:44.362Z,97049.48
2018-02-16T01:03:24.441Z,96933.31
2018-02-16T01:05:04.625Z,96845.02
2018-02-16T01:06:41.390Z,96852.32
2018-02-16T01:08:18.287Z,96746.67
2018-02-16T01:09:55.515Z,96697.38
2018-02-16T01:11:31.876Z,96769.23
2018-02-16T01:13:08.262Z,96687.42
2018-02-16T01:14:45.886Z,96635.55
2018-02-16T01:16:23.454Z,96567.70
2018-02-16T01:17:59.907Z,96559.04
2018-02-16T01:19:36.228Z,96627.80
2018-02-16T01:21:12.645Z,96681.02
2018-02-16T01:22:49.661Z,96666.30
2018-02-16T01:24:26.025Z,96628.19
2018-02-16T01:26:02.456Z,96495.06
2018-02-16T01:27:40.251Z,96412.22
2018-02-16T01:29:17.440Z,96397.98
2018-02-16T01:30:54.952Z,96425.57
2018-02-16T01:32:31.564Z,96438.10
2018-02-16T01:34:08.199Z,96486.03
2018-02-16T01:35:44.463Z,96574.17
2018-02-16T01:37:20.800Z,96639.42
2018-02-16T01:38:58.153Z,96638.54
2018-02-16T01:40:34.930Z,96619.48
2018-02-16T01:42:11.684Z,96649.02
2018-02-16T01:43:48.060Z,96712.98
2018-02-16T01:45:26.172Z,96822.09
2018-02-16T01:47:03.736Z,96887.45
2018-02-16T01:48:40.134Z,96959.28
2018-02-16T01:50:16.939Z,96976.20
2018-02-16T01:51:53.311Z,96925.52
2018-02-16T01:53:29.659Z,96946.71
2018-02-16T01:55:06.012Z,96902.52
2018-02-16T01:56:42.361Z,96894.75
2018-02-16T01:58:18.722Z,96896.89
2018-02-16T01:59:55.427Z,96827.62
2018-02-16T02:01:32.258Z,96837.16
2018-02-16T02:03:09.410Z,96900.98
2018-02-16T02:04:45.800Z,96848.80
2018-02-16T02:06:23.278Z,96949.31
2018-02-16T02:07:59.638Z,96915.16
2018-02-16T02:09:36.858Z,96724.59
2018-02-16T02:11:13.248Z,96718.19
2018-02-16T02:12:50.021Z,96690.88
2018-02-16T02:14:26.505Z,96699.94
2018-02-16T02:16:03.032Z,96703.46
2018-02-16T02:17:39.340Z,96736.72
2018-02-16T02:19:17.019Z,96738.89
2018-02-16T02:20:53.366Z,96764.00
2018-02-16T02:22:29.808Z,96697.38
2018-02-16T02:24:06.175Z,96666.77
2018-02-16T02:25:42.629Z,96662.39
2018-02-16T02:27:18.976Z,96687.06
2018-02-16T02:28:55.278Z,96707.77
2018-02-16T02:30:33.136Z,96619.16
2018-02-16T02:32:10.672Z,96496.83
2018-02-16T02:33:46.991Z,96414.78
2018-02-16T02:35:23.394Z,96369.42
2018-02-16T02:36:59.704Z,96230.93
2018-02-16T02:38:37.198Z,96093.45
2018-02-16T02:40:13.532Z,96034.87
2018-02-16T02:41:51.677Z,96025.80
2018-02-16T02:43:28.009Z,96046.06
2018-02-16T02:45:05.538Z,96138.27
2018-02-16T02:46:42.438Z,96177.86
2018-02-16T02:48:18.699Z,96207.60
2018-02-16T02:49:55.171Z,96226.11
2018-02-16T02:51:31.852Z,96283.06
2018-02-16T02:53:08.201Z,96330.45
2018-02-16T02:54:45.041Z,96422.09
2018-02-16T02:56:21.318Z,96481.67
2018-02-16T02:57:57.634Z,96530.08
2018-02-16T02:59:34.721Z,96598.38
2018-02-16T03:01:11.410Z,96603.10
2018-02-16T03:02:48.387Z,96548.98
2018-02-16T03:04:25.119Z,96399.62
2018-02-16T03:06:01.464Z,96396.64
2018-02-16T03:07:37.914Z,96393.94
2018-02-16T03:09:14.273Z,96401.89
2018-02-16T03:10:51.001Z,96423.37
2018-02-16T03:12:27.284Z,96436.33
2018-02-16T03:14:04.465Z,96507.56
2018-02-16T03:15:41.001Z,96549.09
2018-02-16T03:17:17.905Z,96591.94
2018-02-16T03:18:54.253Z,96596.66
2018-02-16T03:20:30.647Z,96589.31
2018-02-16T03:22:07.041Z,96564.61
2018-02-16T03:23:44.518Z,96569.45
2018-02-16T03:25:21.616Z,96507.63
2018-02-16T03:26:58.012Z,96480.36
2018-02-16T03:28:34.393Z,96540.10
2018-02-16T03:30:11.129Z,96612.23
2018-02-16T03:31:48.069Z,96776.16
2018-02-16T03:34:57.514Z,96819.86
2018-02-16T03:36:34.204Z,96782.58
2018-02-16T03:38:11.765Z,96674.41
2018-02-16T03:39:52.697Z,96651.52
2018-02-16T03:41:29.827Z,96635.19
2018-02-16T03:43:08.508Z,96535.70
2018-02-16T03:44:46.794Z,96498.54
2018-02-16T03:46:23.751Z,96481.73
2018-02-16T03:48:00.414Z,96493.81
2018-02-16T03:49:37.321Z,96470.06
2018-02-16T03:51:13.645Z,96478.26
2018-02-16T03:52:51.683Z,96513.21
2018-02-16T03:54:28.110Z,96563.80
2018-02-16T03:56:05.404Z,96590.16
2018-02-16T03:57:41.766Z,96534.38
2018-02-16T03:59:18.793Z,96445.80
2018-02-16T04:00:55.650Z,96457.09
2018-02-16T04:02:32.355Z,96483.02
2018-02-16T04:04:09.432Z,96491.65
2018-02-16T04:05:46.089Z,96500.35
2018-02-16T04:07:22.586Z,96539.64
2018-02-16T04:08:58.872Z,96588.03
2018-02-16T04:10:35.386Z,96629.47
2018-02-16T04:12:11.749Z,96662.85
2018-02-16T04:13:48.181Z,96636.41
2018-02-16T04:15:26.393Z,96626.48
2018-02-16T04:17:02.646Z,96623.11
2018-02-16T04:18:38.973Z,96634.30
2018-02-16T04:20:15.301Z,96723.37
2018-02-16T04:21:52.207Z,96772.64
2018-02-16T04:23:28.575Z,96826.34
2018-02-16T04:25:04.895Z,96812.03
2018-02-16T04:26:41.261Z,96687.45
2018-02-16T04:28:17.987Z,96584.16
2018-02-16T04:29:55.118Z,96549.58
2018-02-16T04:31:31.925Z,96407.43
2018-02-16T04:33:09.113Z,96381.98
2018-02-16T04:34:45.702Z,96434.27
2018-02-16T04:36:22.020Z,96476.17
2018-02-16T04:37:59.144Z,96523.69
2018-02-16T04:39:35.491Z,96557.80
2018-02-16T04:41:12.214Z,96515.41
2018-02-16T04:42:49.107Z,96438.14
2018-02-16T04:44:26.174Z,96429.09
2018-02-16T04:46:02.820Z,96392.34
2018-02-16T04:47:39.637Z,96362.95
2018-02-16T04:49:15.929Z,96379.39
2018-02-16T04:50:52.320Z,96408.31
2018-02-16T04:52:28.600Z,96427.34
2018-02-16T04:54:05.008Z,96427.73
2018-02-16T04:55:41.765Z,96394.47
2018-02-16T04:57:18.613Z,96395.40
2018-02-16T04:58:55.205Z,96398.38
2018-02-16T05:00:32.401Z,96453.27
2018-02-16T05:02:09.104Z,96491.65
2018-02-16T05:03:45.432Z,96460.08
2018-02-16T05:05:22.005Z,96443.75
2018-02-16T05:06:59.113Z,96506.42
2018-02-16T05:08:35.421Z,96566.85
2018-02-16T05:10:11.965Z,96565.08
2018-02-16T05:11:49.048Z,96555.48
2018-02-16T05:13:25.930Z,96547.87
2018-02-16T05:15:03.400Z,96464.91
2018-02-16T05:16:40.094Z,96502.91
2018-02-16T05:18:16.478Z,96481.70
2018-02-16T05:19:53.779Z,96308.67
2018-02-16T05:21:30.042Z,96122.83
2018-02-16T05:23:06.525Z,96255.16
2018-02-16T05:24:43.577Z,96403.14
2018-02-16T05:26:20.287Z,96361.15
2018-02-16T05:27:56.649Z,96209.38
2018-02-16T05:29:33.218Z,96058.14
2018-02-16T05:31:09.766Z,96031.05
2018-02-16T05:32:47.300Z,96049.95
2018-02-16T05:34:23.616Z,96167.58
2018-02-16T05:36:00.731Z,96255.93
2018-02-16T05:37:37.124Z,96329.25
2018-02-16T05:39:13.785Z,96360.72
2018-02-16T05:40:50.147Z,96365.94
2018-02-16T05:42:26.515Z,96372.47
2018-02-16T05:44:02.820Z,96306.86
2018-02-16T05:45:40.529Z,96341.81
2018-02-16T05:47:16.839Z,96349.12
2018-02-16T05:48:54.423Z,96378.50
2018-02-16T05:50:30.708Z,96504.19
2018-02-16T05:52:07.869Z,96500.64
2018-02-16T05:53:44.153Z,96420.84
2018-02-16T05:55:21.172Z,96447.33
2018-02-16T05:56:57.490Z,96485.19
2018-02-16T05:58:34.866Z,96511.94
2018-02-16T06:00:11.176Z,96479.54
2018-02-16T06:01:47.772Z,96435.94
2018-02-16T06:03:24.048Z,96434.73
2018-02-16T06:05:00.495Z,96460.15
2018-02-16T06:06:36.901Z,96535.70
2018-02-16T06:08:14.792Z,96451.48
2018-02-16T06:09:51.142Z,96246.89
2018-02-16T06:11:28.206Z,96150.32
2018-02-16T06:13:05.349Z,96061.61
2018-02-16T06:14:41.660Z,95968.13
2018-02-16T06:16:19.248Z,95951.81
2018-02-16T06:17:57.158Z,95998.79
2018-02-16T06:19:34.205Z,96053.47
2018-02-16T06:21:10.551Z,95966.78
2018-02-16T06:22:47.138Z,95984.09
2018-02-16T06:24:23.448Z,96075.42
2018-02-16T06:25:59.813Z,96178.78
2018-02-16T06:27:36.236Z,96279.77
2018-02-16T06:29:12.883Z,96354.80
2018-02-16T06:30:49.402Z,96398.02
2018-02-16T06:32:25.794Z,96359.94
2018-02-16T06:34:02.268Z,96249.94
2018-02-16T06:35:38.872Z,96159.78
2018-02-16T06:37:16.884Z,96032.78
2018-02-16T06:38:54.039Z,95968.13
2018-02-16T06:40:30.381Z,95852.73
2018-02-16T06:42:07.058Z,95829.19
2018-02-16T06:43:43.724Z,95930.29
2018-02-16T06:45:21.049Z,96005.66
2018-02-16T06:46:58.829Z,96085.30
2018-02-16T06:48:36.467Z,96164.57
2018-02-16T06:50:19.903Z,96281.36
2018-02-16T06:51:56.368Z,96391.17
2018-02-16T06:53:32.716Z,96448.40
2018-02-16T06:55:10.475Z,96524.05
2018-02-16T06:56:46.801Z,96620.52
2018-02-16T06:58:23.087Z,96663.25
2018-02-16T06:59:59.471Z,96547.45
2018-02-16T07:01:36.418Z,96451.95
2018-02-16T07:03:13.645Z,96403.98
2018-02-16T07:04:50.196Z,96300.88
2018-02-16T07:06:26.606Z,96250.79
2018-02-16T07:08:04.597Z,96281.05
2018-02-16T07:09:40.990Z,96308.99
2018-02-16T07:11:17.283Z,96341.42
2018-02-16T07:12:53.637Z,96371.66
2018-02-16T07:14:30.476Z,96373.32
2018-02-16T07:16:11.911Z,96373.39
2018-02-16T07:17:48.312Z,96374.20
2018-02-16T07:19:24.686Z,96391.88
2018-02-16T07:21:02.573Z,96416.59
2018-02-16T07:22:39.229Z,96427.84
2018-02-16T07:24:15.624Z,96447.62
2018-02-16T07:25:51.975Z,96425.57
2018-02-16T07:27:28.840Z,96451.03
2018-02-16T07:29:05.311Z,96472.16
2018-02-16T07:30:42.201Z,96460.15
2018-02-16T07:32:19.403Z,96359.94
2018-02-16T07:33:57.170Z,96281.05
2018-02-16T07:35:33.644Z,96184.81
2018-02-16T07:37:11.405Z,96037.95
2018-02-16T07:38:47.712Z,96034.48
2018-02-16T07:40:25.310Z,96063.77
2018-02-16T07:42:01.734Z,96092.99
2018-02-16T07:43:38.170Z,96147.34
2018-02-16T07:45:16.952Z,96230.47
2018-02-16T07:46:54.041Z,96273.66
2018-02-16T07:48:31.130Z,96299.95
2018-02-16T07:50:07.437Z,96330.95
2018-02-16T07:51:43.758Z,96351.67
2018-02-16T07:53:20.549Z,96240.43
2018-02-16T07:54:56.958Z,96170.59
2018-02-16T07:56:33.317Z,96063.34
2018-02-16T07:58:10.926Z,95971.56
2018-02-16T07:59:48.388Z,95957.83
2018-02-16T08:01:25.418Z,95950.50
2018-02-16T08:03:01.820Z,95942.67
2018-02-16T08:04:38.186Z,95931.92
2018-02-16T08:06:14.925Z,95938.86
2018-02-16T08:07:51.339Z,95950.46
2018-02-16T08:09:28.569Z,95905.20
2018-02-16T08:11:05.195Z,95902.65
2018-02-16T08:12:42.596Z,95923.73
2018-02-16T08:14:18.899Z,95972.34
2018-02-16T08:15:55.575Z,96022.30
2018-02-16T08:17:31.900Z,96050.80
2018-02-16T08:19:08.588Z,96089.23
2018-02-16T08:20:45.023Z,96116.30
2018-02-16T08:22:21.560Z,96141.33
2018-02-16T08:23:57.923Z,96112.41
2018-02-16T08:25:35.843Z,96110.31
2018-02-16T08:27:13.282Z,96177.94
2018-02-16T08:28:49.580Z,96216.75
2018-02-16T08:30:27.927Z,96233.48
2018-02-16T08:32:05.678Z,96241.31
2018-02-16T08:33:42.077Z,96279.73
2018-02-16T08:35:18.397Z,96369.03
2018-02-16T08:36:55.890Z,96394.44
2018-02-16T08:38:32.903Z,96387.52
2018-02-16T08:40:09.508Z,96399.16
2018-02-16T08:41:46.837Z,96453.66
2018-02-16T08:43:23.254Z,96519.31
2018-02-16T08:45:01.990Z,96603.66
2018-02-16T08:46:38.861Z,96639.06
2018-02-16T08:48:16.239Z,96778.37
2018-02-16T08:49:52.603Z,96887.06
2018-02-16T08:51:29.274Z,96780.86
2018-02-16T08:53:05.715Z,96845.05
2018-02-16T08:54:42.180Z,97042.64
2018-02-16T08:56:18.692Z,97115.89
2018-02-16T08:57:55.484Z,97140.64
2018-02-16T08:59:32.010Z,97318.13
2018-02-16T09:01:08.523Z,97356.33
2018-02-16T09:02:45.010Z,97167.09
2018-02-16T09:04:22.089Z,97210.50
2018-02-16T09:05:58.409Z,97207.86
2018-02-16T09:07:34.819Z,97159.78
2018-02-16T09:09:11.236Z,97105.98
2018-02-16T09:10:48.448Z,97116.78
2018-02-16T09:12:24.836Z,97192.27
2018-02-16T09:14:01.817Z,97081.66
2018-02-16T09:15:38.352Z,97132.92
2018-02-16T09:17:15.858Z,97263.05
2018-02-16T09:18:53.152Z,97354.22
2018-02-16T09:20:29.436Z,97370.72
2018-02-16T09:22:06.733Z,97355.11
2018-02-16T09:23:43.473Z,97242.25
2018-02-16T09:25:20.626Z,97323.44
2018-02-16T09:26:57.031Z,97418.53
2018-02-16T09:28:33.379Z,97478.94
2018-02-16T09:30:10.364Z,97349.92
2018-02-16T09:31:48.138Z,97300.02
2018-02-16T09:33:24.504Z,97255.30
2018-02-16T09:35:00.812Z,97359.43
2018-02-16T09:36:39.464Z,97289.11
2018-02-16T09:38:16.020Z,97314.36
2018-02-16T09:39:54.178Z,97449.03
2018-02-16T09:41:30.566Z,97598.55
2018-02-16T09:43:07.300Z,97719.48
2018-02-16T09:44:44.432Z,97618.91
2018-02-16T09:46:21.343Z,97608.92
2018-02-16T09:47:58.280Z,97642.06
2018-02-16T09:49:35.707Z,97684.27
2018-02-16T09:51:12.790Z,97705.99
2018-02-16T09:52:50.232Z,97555.06
2018-02-16T09:54:26.905Z,97602.53
2018-02-16T09:56:03.871Z,97656.87
2018-02-16T09:57:41.093Z,97525.04
2018-02-16T09:59:18.056Z,97537.26
2018-02-16T10:00:54.620Z,97540.27
2018-02-16T10:02:31.813Z,97412.06
2018-02-16T10:04:09.136Z,97555.98
2018-02-16T10:05:45.682Z,97666.84
2018-02-16T10:07:22.447Z,97743.95
2018-02-16T10:08:59.976Z,97783.14
2018-02-16T10:10:36.542Z,97821.45
2018-02-16T10:12:13.852Z,97841.11
2018-02-16T10:13:50.626Z,97860.27
2018-02-16T10:15:31.702Z,97703.88
2018-02-16T10:17:09.304Z,97708.73
2018-02-16T10:18:45.982Z,97754.80
2018-02-16T10:20:22.686Z,97846.37
2018-02-16T10:22:00.104Z,97895.58
2018-02-16T10:23:37.668Z,97954.91
2018-02-16T10:25:13.995Z,97892.11
2018-02-16T10:26:50.479Z,97858.14
2018-02-16T10:28:28.218Z,97757.41
2018-02-16T10:30:05.660Z,97746.16
2018-02-16T10:31:42.340Z,97740.88
2018-02-16T10:33:18.733Z,97816.75
2018-02-16T10:34:55.727Z,97909.17
2018-02-16T10:36:32.114Z,97849.04
2018-02-16T10:38:08.430Z,97812.41
2018-02-16T10:39:44.889Z,97879.09
2018-02-16T10:41:21.772Z,97855.55
2018-02-16T10:42:58.274Z,97910.06
2018-02-16T10:44:34.609Z,98063.59
2018-02-16T10:46:11.718Z,97991.59
2018-02-16T10:47:48.597Z,97900.04
2018-02-16T10:49:24.945Z,97879.58
2018-02-16T10:51:01.392Z,97862.16
2018-02-16T10:52:37.787Z,97894.00
2018-02-16T10:54:14.514Z,98031.33
2018-02-16T10:55:50.907Z,97978.05
2018-02-16T10:57:27.237Z,97958.06
2018-02-16T10:59:03.703Z,98064.48
2018-02-16T11:00:44.776Z,98115.49
2018-02-16T11:02:25.088Z,98056.58
2018-02-16T11:04:03.414Z,98006.85
2018-02-16T11:05:43.990Z,97887.83
2018-02-16T11:07:25.678Z,97998.20
2018-02-16T11:09:06.265Z,97955.42
2018-02-16T11:10:42.735Z,97997.77
2018-02-16T11:12:19.855Z,98069.75
2018-02-16T11:13:56.761Z,97951.97
2018-02-16T11:15:33.440Z,97935.38
2018-02-16T11:17:09.885Z,97976.84
2018-02-16T11:18:46.525Z,98080.22
2018-02-16T11:20:23.901Z,98295.02
2018-02-16T11:22:00.291Z,98386.84
2018-02-16T11:25:06.091Z,98340.08
2018-02-16T11:26:43.718Z,98393.00
2018-02-16T11:28:20.133Z,98506.71
2018-02-16T11:29:57.355Z,98491.40
2018-02-16T11:31:34.818Z,98643.68
2018-02-16T11:33:11.709Z,98664.21
2018-02-16T11:34:48.044Z,98625.34
2018-02-16T11:36:24.803Z,98495.76
2018-02-16T11:38:01.488Z,98554.86
2018-02-16T11:39:38.586Z,98569.64
2018-02-16T11:41:15.384Z,98546.93
2018-02-16T11:42:51.894Z,98491.37
2018-02-16T11:44:28.399Z,98511.91
2018-02-16T11:46:08.958Z,98536.41
2018-02-16T11:47:45.958Z,98541.77
2018-02-16T11:49:23.825Z,98534.30
2018-02-16T11:51:01.237Z,98519.90
2018-02-16T11:52:39.930Z,98557.45
2018-02-16T11:54:16.305Z,98491.37
2018-02-16T11:55:53.446Z,98393.87
2018-02-16T11:57:30.059Z,98342.70
2018-02-16T11:59:07.285Z,98402.71
2018-02-16T12:00:43.941Z,98362.80
2018-02-16T12:02:20.479Z,98383.84
2018-02-16T12:03:57.109Z,98451.16
2018-02-16T12:05:34.651Z,98482.72
2018-02-16T12:07:11.041Z,98534.32
2018-02-16T12:08:47.426Z,98587.26
2018-02-16T12:10:23.785Z,98650.75
2018-02-16T12:12:00.667Z,98668.63
2018-02-16T12:13:37.830Z,98558.35
2018-02-16T12:15:16.172Z,98497.95
2018-02-16T12:16:54.244Z,98527.73
2018-02-16T12:18:31.260Z,98562.28
2018-02-16T12:20:08.468Z,98701.53
2018-02-16T12:21:44.929Z,98710.28
2018-02-16T12:23:21.347Z,98596.92
2018-02-16T12:24:58.338Z,98551.83
2018-02-16T12:26:36.131Z,98627.52
2018-02-16T12:28:13.565Z,98556.16
2018-02-16T12:29:50.532Z,98574.56
2018-02-16T12:31:27.844Z,98609.59
2018-02-16T12:33:04.372Z,98563.66
2018-02-16T12:34:41.142Z,98525.61
2018-02-16T12:36:17.734Z,98522.93
2018-02-16T12:37:54.823Z,98497.14
2018-02-16T12:39:32.450Z,98463.02
2018-02-16T12:41:09.228Z,98469.14
2018-02-16T12:42:45.782Z,98458.61
2018-02-16T12:44:22.724Z,98435.86
2018-02-16T12:45:59.697Z,98425.41
2018-02-16T12:47:36.197Z,98438.03
2018-02-16T12:49:13.589Z,98465.64
2018-02-16T12:50:50.576Z,98505.47
2018-02-16T12:52:27.803Z,98622.78
2018-02-16T12:54:04.257Z,98574.56
2018-02-16T12:55:40.817Z,98669.19
2018-02-16T12:57:17.495Z,98738.81
2018-02-16T12:58:54.021Z,98557.08
2018-02-16T13:00:30.774Z,98555.31
2018-02-16T13:02:07.282Z,98623.61
2018-02-16T13:03:44.130Z,98745.36
2018-02-16T13:05:21.803Z,98808.94
2018-02-16T13:06:58.523Z,98733.88
2018-02-16T13:08:35.176Z,98634.13
2018-02-16T13:10:12.830Z,98557.92
2018-02-16T13:11:49.429Z,98755.88
2018-02-16T13:13:30.804Z,98803.20
2018-02-16T13:15:07.856Z,98729.52
2018-02-16T13:16:45.107Z,98760.21
2018-02-16T13:20:02.987Z,98846.56
2018-02-16T13:23:21.303Z,98554.91
2018-02-16T13:24:57.873Z,98498.48
2018-02-16T13:26:34.602Z,98629.30
2018-02-16T13:28:11.608Z,98564.06
2018-02-16T13:29:48.468Z,98486.61
2018-02-16T13:31:26.384Z,98384.79
2018-02-16T13:33:06.833Z,98376.95
2018-02-16T13:34:47.134Z,98399.20
2018-02-16T13:36:24.746Z,98296.02
2018-02-16T13:38:02.665Z,98359.03
2018-02-16T13:39:41.918Z,98274.59
2018-02-16T13:41:19.827Z,98283.81
2018-02-16T13:42:57.776Z,98350.21
2018-02-16T13:44:38.441Z,98395.71
2018-02-16T13:46:17.973Z,98356.34
2018-02-16T13:47:55.383Z,98380.41
2018-02-16T13:49:32.685Z,98406.17
2018-02-16T13:51:09.760Z,98465.64
2018-02-16T13:52:47.488Z,98635.42
2018-02-16T13:54:25.272Z,98715.07
2018-02-16T13:56:03.621Z,98631.03
2018-02-16T13:57:41.010Z,98705.05
2018-02-16T13:59:18.537Z,98634.98
2018-02-16T14:00:56.783Z,98656.89
2018-02-16T14:02:34.436Z,98793.93
2018-02-16T14:04:11.231Z,98884.20
2018-02-16T14:05:47.793Z,98934.67
2018-02-16T14:07:25.093Z,98946.56
2018-02-16T14:09:01.720Z,98915.80
2018-02-16T14:10:38.348Z,98923.69
2018-02-16T14:12:14.750Z,98778.64
2018-02-16T14:13:51.340Z,98675.69
2018-02-16T14:15:30.305Z,98706.28
2018-02-16T14:17:06.881Z,98849.22
2018-02-16T14:18:43.913Z,98914.11
2018-02-16T14:20:21.110Z,98919.35
2018-02-16T14:21:57.682Z,98927.19
2018-02-16T14:23:34.181Z,98942.14
2018-02-16T14:25:12.581Z,98918.48
2018-02-16T14:26:50.073Z,98858.39
2018-02-16T14:28:27.104Z,98913.22
2018-02-16T14:30:04.112Z,98974.23
2018-02-16T14:31:41.507Z,98941.68
2018-02-16T14:33:17.896Z,98847.48
2018-02-16T14:34:54.391Z,98924.99
2018-02-16T14:36:31.452Z,98906.60
2018-02-16T14:38:09.159Z,98821.55
2018-02-16T14:39:46.516Z,98755.83
2018-02-16T14:41:22.949Z,98756.20
2018-02-16T14:42:59.642Z,98803.11
2018-02-16T14:44:37.345Z,98775.96
2018-02-16T14:46:14.064Z,98735.16
2018-02-16T14:47:50.600Z,98735.16
2018-02-16T14:49:28.113Z,98714.18
2018-02-16T14:51:05.256Z,98696.22
2018-02-16T14:52:42.070Z,98663.83
2018-02-16T14:54:19.950Z,98671.66
2018-02-16T14:55:57.497Z,98665.56
2018-02-16T14:57:35.849Z,98616.06
2018-02-16T14:59:12.507Z,98573.19
2018-02-16T15:00:49.107Z,98565.28
2018-02-16T15:02:25.668Z,98483.45
2018-02-16T15:04:03.241Z,98473.81
2018-02-16T15:05:40.565Z,98516.77
2018-02-16T15:07:17.949Z,98533.34
2018-02-16T15:08:54.466Z,98513.67
2018-02-16T15:10:32.022Z,98537.67
2018-02-16T15:12:08.704Z,98566.55
2018-02-16T15:13:46.171Z,98629.61
2018-02-16T15:15:23.933Z,98646.66
2018-02-16T15:17:01.134Z,98617.77
2018-02-16T15:18:37.790Z,98622.59
2018-02-16T15:20:16.392Z,98666.42
2018-02-16T15:21:54.112Z,98740.82
2018-02-16T15:23:32.519Z,98795.56
2018-02-16T15:25:09.575Z,98785.07
2018-02-16T15:26:46.477Z,98811.41
2018-02-16T15:28:23.341Z,98774.06
2018-02-16T15:30:01.208Z,98730.30
2018-02-16T15:31:38.403Z,98728.11
2018-02-16T15:33:15.129Z,98693.52
2018-02-16T15:34:52.098Z,98704.48
2018-02-16T15:36:34.075Z,98703.59
2018-02-16T15:38:11.506Z,98746.48
2018-02-16T15:39:49.353Z,98665.48
2018-02-16T15:41:28.635Z,98602.45
2018-02-16T15:43:05.496Z,98574.87
2018-02-16T15:44:42.309Z,98597.63
2018-02-16T15:46:38.548Z,98618.61
2018-02-16T15:48:16.913Z,98664.19
2018-02-16T15:49:53.992Z,98697.41
2018-02-16T15:51:31.562Z,98728.98
2018-02-16T15:53:08.441Z,98752.68
2018-02-16T15:54:44.895Z,98781.98
2018-02-16T15:56:23.682Z,98830.59
2018-02-16T15:58:00.915Z,98846.84
2018-02-16T15:59:37.849Z,98849.89
2018-02-16T16:01:16.048Z,98884.08
2018-02-16T16:02:53.301Z,98827.55
2018-02-16T16:04:31.126Z,98859.94
2018-02-16T16:06:08.431Z,98876.62
2018-02-16T16:07:45.085Z,98831.91
2018-02-16T16:09:22.926Z,98703.97
2018-02-16T16:10:59.460Z,98765.27
2018-02-16T16:12:42.191Z,98877.52
2018-02-16T16:14:19.354Z,98976.22
2018-02-16T16:16:03.573Z,99002.95
2018-02-16T16:17:39.985Z,98999.86
2018-02-16T16:19:17.757Z,99081.94
2018-02-16T16:20:54.938Z,99115.78
2018-02-16T16:22:31.653Z,99122.34
2018-02-16T16:24:08.044Z,99193.48
2018-02-16T16:25:45.339Z,99198.78
2018-02-16T16:27:21.967Z,99204.91
2018-02-16T16:28:59.609Z,99184.20
2018-02-16T16:30:36.286Z,99117.54
2018-02-16T16:32:14.347Z,99120.56
2018-02-16T16:33:51.885Z,99088.54
2018-02-16T16:35:28.980Z,99085.45
2018-02-16T16:37:05.511Z,99077.11
2018-02-16T16:38:41.833Z,99146.45
2018-02-16T16:40:18.315Z,99170.19
2018-02-16T16:41:55.215Z,99170.19
2018-02-16T16:43:31.646Z,99171.92
2018-02-16T16:45:08.141Z,99102.98
2018-02-16T16:46:45.141Z,98961.64
2018-02-16T16:48:22.166Z,98755.97
2018-02-16T16:49:58.521Z,98741.14
2018-02-16T16:51:34.850Z,98777.11
2018-02-16T16:53:11.453Z,98787.11
2018-02-16T16:54:48.697Z,98760.84
2018-02-16T16:56:25.886Z,98760.84
2018-02-16T16:58:03.229Z,98806.47
2018-02-16T16:59:39.687Z,98901.52
2018-02-16T17:01:18.688Z,98859.41
2018-02-16T17:02:55.285Z,98803.81
2018-02-16T17:04:35.316Z,98787.98
2018-02-16T17:06:11.970Z,98756.92
2018-02-16T17:07:53.105Z,98724.46
2018-02-16T17:09:32.037Z,98625.11
2018-02-16T17:11:10.437Z,98625.08
2018-02-16T17:12:47.647Z,98530.13
2018-02-16T17:14:24.482Z,98516.98
2018-02-16T17:16:01.689Z,98546.34
2018-02-16T17:19:27.677Z,98709.97
2018-02-16T17:21:04.636Z,98813.81
2018-02-16T17:22:43.187Z,98866.88
2018-02-16T17:24:20.627Z,98864.65
2018-02-16T17:25:57.344Z,98896.20
2018-02-16T17:27:34.128Z,98888.34
2018-02-16T17:29:11.278Z,98795.00
2018-02-16T17:30:47.926Z,98674.94
2018-02-16T17:32:27.098Z,98551.97
2018-02-16T17:34:04.304Z,98435.56
2018-02-16T17:35:40.661Z,98381.34
2018-02-16T17:37:22.893Z,98321.04
2018-02-16T17:39:01.294Z,98281.31
2018-02-16T17:40:38.311Z,98224.50
2018-02-16T17:42:14.868Z,98222.71
2018-02-16T17:43:51.394Z,98295.69
2018-02-16T17:45:29.209Z,98283.39
2018-02-16T17:47:06.021Z,98305.69
2018-02-16T17:48:43.485Z,98344.61
2018-02-16T17:50:20.425Z,98352.45
2018-02-16T17:51:56.856Z,98369.51
2018-02-16T17:53:33.691Z,98373.02
2018-02-16T17:55:10.104Z,98333.20
2018-02-16T17:56:46.553Z,98289.52
2018-02-16T17:58:22.974Z,98272.91
2018-02-16T17:59:59.817Z,98258.05
2018-02-16T18:01:37.628Z,98252.43
2018-02-16T18:03:18.927Z,98219.58
2018-02-16T18:04:55.470Z,98262.42
2018-02-16T18:06:32.380Z,98284.25
2018-02-16T18:08:09.787Z,98323.95
2018-02-16T18:09:47.386Z,98368.53
2018-02-16T18:11:24.065Z,98407.49
2018-02-16T18:13:01.016Z,98426.70
2018-02-16T18:14:37.552Z,98436.81
2018-02-16T18:16:14.381Z,98438.14
2018-02-16T18:17:50.898Z,98431.54
2018-02-16T18:19:27.624Z,98417.95
2018-02-16T18:21:04.395Z,98408.36
2018-02-16T18:22:41.098Z,98369.86
2018-02-16T18:24:18.285Z,98336.23
2018-02-16T18:25:55.876Z,98321.77
2018-02-16T18:27:33.138Z,98337.95
2018-02-16T18:29:12.110Z,98353.66
2018-02-16T18:30:48.729Z,98356.72
2018-02-16T18:32:32.748Z,98365.42
2018-02-16T18:34:09.163Z,98366.31
2018-02-16T18:35:46.576Z,98365.45
2018-02-16T18:37:23.268Z,98364.09
2018-02-16T18:39:00.087Z,98354.95
2018-02-16T18:40:37.912Z,98347.09
2018-02-16T18:42:15.217Z,98353.20
2018-02-16T18:43:51.672Z,98354.04
2018-02-16T18:45:30.358Z,98326.16
2018-02-16T18:47:07.184Z,98278.91
2018-02-16T18:48:44.273Z,98186.76
2018-02-16T18:50:20.865Z,98034.92
2018-02-16T18:51:57.778Z,97894.42
2018-02-16T18:53:34.498Z,97812.60
2018-02-16T18:56:46.401Z,97597.47
2018-02-16T18:58:23.476Z,97514.88
2018-02-16T19:00:00.387Z,97560.98
2018-02-16T19:01:39.132Z,97756.86
2018-02-16T19:03:18.497Z,97865.66
2018-02-16T19:04:56.824Z,97893.04
2018-02-16T19:06:33.241Z,97915.72
2018-02-16T19:08:10.429Z,97914.83
2018-02-16T19:09:47.739Z,97927.96
2018-02-16T19:11:24.834Z,97928.91